Time;durP1;ratioP1;P1;durP2;ratioP2;P2;SDS_P1;SDS_P2;PMS_P1;PMS_P2;Temp;Humidity;BMP_temperature;BMP_pressure;BME280_temperature;BME280_humidity;BME280_pressure;Samples;Min_cycle;Max_cycle;Signal;HPM_P1;HPM_P2
2021/05/05 00:01:23;;;;;;;10.55;2.35;;;;;;;9.13;67.79;98047.75;5015238;28;20120;-82
2021/05/05 00:03:50;;;;;;;5.95;2.00;;;;;;;9.09;66.99;98045.50;5014733;28;20069;-82
2021/05/05 00:06:16;;;;;;;5.13;2.10;;;;;;;9.11;67.61;98054.09;5014320;28;20147;-82
2021/05/05 00:08:43;;;;;;;7.30;2.50;;;;;;;9.08;67.22;98059.59;5016485;28;20054;-82
2021/05/05 00:11:09;;;;;;;3.35;1.80;;;;;;;9.07;67.23;98050.03;5015162;28;20053;-82
2021/05/05 00:13:35;;;;;;;4.45;1.42;;;;;;;9.05;67.27;98063.28;5014918;28;20050;-81
2021/05/05 00:16:02;;;;;;;3.40;1.40;;;;;;;9.05;67.45;98067.69;5015019;28;20050;-82
2021/05/05 00:18:28;;;;;;;6.93;1.58;;;;;;;9.02;67.18;98055.66;5015106;28;20415;-82
2021/05/05 00:20:54;;;;;;;3.65;1.40;;;;;;;9.01;67.44;98053.97;5014875;28;20045;-82
2021/05/05 00:23:21;;;;;;;10.65;1.70;;;;;;;8.98;67.04;98062.91;5015161;28;20046;-82
2021/05/05 00:25:47;;;;;;;4.22;1.30;;;;;;;8.96;67.20;98049.09;5014857;28;20057;-82
2021/05/05 00:28:13;;;;;;;3.35;1.20;;;;;;;8.96;67.18;98053.50;5015222;28;20399;-83
2021/05/05 00:30:40;;;;;;;4.68;1.55;;;;;;;8.95;67.54;98047.44;5029279;28;20053;-82
2021/05/05 00:33:06;;;;;;;3.67;1.33;;;;;;;8.94;67.68;98056.22;5034424;28;20498;-83
2021/05/05 00:35:32;;;;;;;5.82;1.42;;;;;;;8.94;67.90;98055.41;5034698;28;20431;-83
2021/05/05 00:38:02;;;;;;;4.72;1.40;;;;;;;8.92;67.53;98050.28;5034634;28;20057;-83
2021/05/05 00:40:28;;;;;;;6.60;1.92;;;;;;;8.89;66.86;98071.50;5034736;28;20510;-84
2021/05/05 00:42:54;;;;;;;3.55;1.30;;;;;;;8.89;67.26;98054.94;5035246;28;20056;-84
2021/05/05 00:45:20;;;;;;;10.65;1.70;;;;;;;8.89;67.52;98054.94;5034868;28;20525;-82
2021/05/05 00:47:47;;;;;;;3.92;1.00;;;;;;;8.86;67.28;98058.66;5034397;28;20049;-82
2021/05/05 00:50:16;;;;;;;10.80;1.60;;;;;;;8.85;66.91;98059.56;5033602;28;20050;-82
2021/05/05 00:52:42;;;;;;;3.92;1.42;;;;;;;8.86;67.62;98061.28;5033928;28;20423;-82
2021/05/05 00:55:09;;;;;;;3.58;1.23;;;;;;;8.84;67.54;98058.75;5034847;28;20410;-82
2021/05/05 00:57:36;;;;;;;5.97;1.40;;;;;;;8.83;66.54;98056.25;5034138;28;20053;-82
2021/05/05 01:00:05;;;;;;;2.80;1.15;;;;;;;8.81;66.88;98043.25;5034583;28;20410;-82
2021/05/05 01:02:32;;;;;;;5.07;1.35;;;;;;;8.85;67.41;98056.94;5033829;28;20065;-83
2021/05/05 01:05:00;;;;;;;3.58;1.40;;;;;;;8.86;68.00;98056.03;5034820;28;20115;-82
2021/05/05 01:07:28;;;;;;;4.28;1.65;;;;;;;8.85;67.51;98049.06;5034560;28;20107;-83
2021/05/05 01:09:54;;;;;;;5.53;1.20;;;;;;;8.84;67.71;98057.91;5023874;28;20046;-82
2021/05/05 01:12:20;;;;;;;6.88;1.48;;;;;;;8.82;67.90;98054.59;5014455;28;20057;-83
2021/05/05 01:14:46;;;;;;;8.80;2.03;;;;;;;8.79;67.79;98039.88;5013770;28;20061;-82
2021/05/05 01:17:13;;;;;;;5.85;1.30;;;;;;;8.76;67.58;98042.78;5014270;28;20057;-82
2021/05/05 01:19:41;;;;;;;4.28;1.85;;;;;;;8.73;67.59;98041.22;5013640;28;20415;-82
2021/05/05 01:22:07;;;;;;;8.05;1.67;;;;;;;8.71;67.95;98053.59;5014061;28;20062;-81
2021/05/05 01:24:35;;;;;;;4.95;1.30;;;;;;;8.70;68.13;98041.44;5013383;28;20061;-81
2021/05/05 01:27:06;;;;;;;2.83;1.40;;;;;;;8.66;67.13;98050.50;5014096;28;20388;-82
2021/05/05 01:29:35;;;;;;;5.05;1.33;;;;;;;8.67;68.07;98054.78;5013722;28;20073;-82
2021/05/05 01:32:01;;;;;;;4.07;1.48;;;;;;;8.68;68.54;98050.41;5013753;28;20057;-82
2021/05/05 01:34:27;;;;;;;4.97;1.40;;;;;;;8.63;68.13;98055.97;5013423;28;20053;-82
2021/05/05 01:36:53;;;;;;;5.75;2.05;;;;;;;8.59;68.52;98046.69;5014539;28;20499;-82
2021/05/05 01:39:20;;;;;;;4.00;1.52;;;;;;;8.55;68.46;98051.34;5023287;28;20041;-82
2021/05/05 01:41:47;;;;;;;5.05;1.40;;;;;;;8.52;68.65;98034.97;5033498;28;20056;-82
2021/05/05 01:44:14;;;;;;;2.63;1.20;;;;;;;8.46;69.04;98039.72;5033031;28;20050;-80
2021/05/05 01:46:47;;;;;;;2.22;0.68;;;;;;;8.42;69.11;98038.31;5033125;28;20053;-82
2021/05/05 01:49:22;;;;;;;2.35;0.98;;;;;;;8.34;68.73;98038.03;5030230;28;20049;-82
2021/05/05 01:51:54;;;;;;;3.53;0.90;;;;;;;8.28;68.87;98048.97;5014177;28;20057;-81
2021/05/05 01:54:22;;;;;;;3.00;1.00;;;;;;;8.20;68.25;98045.16;5014116;28;20052;-82
2021/05/05 01:56:48;;;;;;;0.68;0.60;;;;;;;8.13;68.85;98043.09;5014032;28;20522;-82
2021/05/05 01:59:14;;;;;;;3.63;1.45;;;;;;;8.03;69.04;98042.94;5028235;28;20442;-81
2021/05/05 02:01:40;;;;;;;7.22;1.67;;;;;;;7.94;69.86;98042.69;5033068;28;20414;-82
2021/05/05 02:04:07;;;;;;;4.93;1.60;;;;;;;7.87;70.31;98044.09;5032331;28;20050;-81
2021/05/05 02:06:33;;;;;;;4.43;1.90;;;;;;;7.83;70.64;98047.88;5011854;28;20046;-82
2021/05/05 02:09:00;;;;;;;4.75;2.35;;;;;;;7.81;70.74;98048.00;5012793;28;20054;-82
2021/05/05 02:11:27;;;;;;;4.88;2.03;;;;;;;7.77;71.27;98043.91;5019109;28;20068;-81
2021/05/05 02:13:54;;;;;;;6.50;2.58;;;;;;;7.76;71.08;98047.50;5031453;28;20042;-81
2021/05/05 02:16:20;;;;;;;9.38;3.30;;;;;;;7.76;71.87;98044.03;5031296;28;20520;-82
2021/05/05 02:18:47;;;;;;;7.97;2.85;;;;;;;7.76;71.80;98042.25;5032141;28;20506;-82
2021/05/05 02:21:14;;;;;;;5.40;2.35;;;;;;;7.78;72.03;98050.00;5033005;28;20049;-82
2021/05/05 02:23:40;;;;;;;7.00;2.70;;;;;;;7.80;71.81;98050.72;5032670;28;20049;-82
2021/05/05 02:26:06;;;;;;;7.07;2.80;;;;;;;7.81;71.90;98044.53;5033156;28;20061;-82
2021/05/05 02:28:32;;;;;;;7.72;2.60;;;;;;;7.83;71.91;98045.25;5033352;28;20045;-82
2021/05/05 02:30:59;;;;;;;9.35;2.63;;;;;;;7.83;72.08;98047.88;5032473;28;20060;-81
2021/05/05 02:33:26;;;;;;;7.05;2.47;;;;;;;7.84;71.69;98048.72;5032801;28;20088;-82
2021/05/05 02:35:53;;;;;;;7.75;2.60;;;;;;;7.84;71.38;98040.88;5032950;28;20049;-82
2021/05/05 02:38:19;;;;;;;9.52;2.97;;;;;;;7.82;71.91;98030.50;5032960;28;20120;-81
2021/05/05 02:40:47;;;;;;;4.15;1.95;;;;;;;7.81;71.54;98053.22;5031973;28;20060;-81
2021/05/05 02:43:14;;;;;;;7.88;1.80;;;;;;;7.82;71.33;98043.59;5033097;28;20056;-82
2021/05/05 02:45:40;;;;;;;7.38;1.90;;;;;;;7.79;71.10;98046.44;5032196;28;20053;-82
2021/05/05 02:48:07;;;;;;;8.23;1.90;;;;;;;7.77;71.15;98045.69;5033879;28;20060;-81
2021/05/05 02:50:34;;;;;;;6.30;1.70;;;;;;;7.74;70.84;98038.91;5034029;28;20054;-82
2021/05/05 02:53:00;;;;;;;5.82;1.73;;;;;;;7.72;71.01;98034.72;5033136;28;20049;-82
2021/05/05 02:55:26;;;;;;;8.70;2.13;;;;;;;7.67;70.86;98038.50;5033282;28;20057;-83
2021/05/05 02:57:52;;;;;;;4.97;1.98;;;;;;;7.64;71.05;98033.53;5032577;28;20049;-81
2021/05/05 03:00:19;;;;;;;7.75;2.00;;;;;;;7.60;71.09;98037.31;5032487;28;20053;-81
2021/05/05 03:02:45;;;;;;;4.70;1.75;;;;;;;7.56;71.29;98020.97;5032295;28;20628;-81
2021/05/05 03:05:11;;;;;;;6.30;1.80;;;;;;;7.53;71.23;98039.53;5031492;28;20050;-83
2021/05/05 03:07:37;;;;;;;9.48;2.05;;;;;;;7.51;71.40;98030.94;5032897;28;20056;-82
2021/05/05 03:10:05;;;;;;;8.82;1.80;;;;;;;7.49;71.53;98034.63;5032495;28;20521;-82
2021/05/05 03:12:31;;;;;;;6.90;2.50;;;;;;;7.47;71.82;98037.34;5032586;28;20050;-82
2021/05/05 03:14:57;;;;;;;6.95;2.03;;;;;;;7.47;71.80;98042.59;5032733;28;20049;-82
2021/05/05 03:17:23;;;;;;;7.40;2.30;;;;;;;7.48;72.16;98040.81;5032783;28;20430;-82
2021/05/05 03:19:51;;;;;;;14.52;2.75;;;;;;;7.48;72.14;98048.66;5032038;28;20506;-82
2021/05/05 03:22:18;;;;;;;7.55;2.20;;;;;;;7.48;72.31;98039.00;5032828;28;20045;-82
2021/05/05 03:24:45;;;;;;;8.38;2.70;;;;;;;7.49;71.90;98039.84;5032672;28;20438;-82
2021/05/05 03:27:11;;;;;;;7.03;2.63;;;;;;;7.50;71.95;98033.66;5032446;28;20050;-82
2021/05/05 03:29:38;;;;;;;10.50;3.20;;;;;;;7.49;72.00;98032.84;5019951;28;20050;-82
2021/05/05 03:32:04;;;;;;;12.25;2.60;;;;;;;7.48;71.84;98028.53;5013072;28;20049;-82
2021/05/05 03:34:30;;;;;;;11.20;2.53;;;;;;;7.49;71.95;98034.63;5016071;28;20132;-83
2021/05/05 03:36:57;;;;;;;8.43;2.67;;;;;;;7.49;71.71;98034.63;5017592;28;20582;-82
2021/05/05 03:39:23;;;;;;;7.82;2.63;;;;;;;7.48;71.73;98038.19;5025253;28;20041;-83
2021/05/05 03:41:49;;;;;;;11.65;2.03;;;;;;;7.47;72.00;98033.91;5037155;28;20511;-83
2021/05/05 03:44:15;;;;;;;10.35;2.38;;;;;;;7.46;71.81;98040.91;5037105;28;20049;-83
2021/05/05 03:46:41;;;;;;;6.22;2.33;;;;;;;7.46;72.01;98038.28;5036655;28;20057;-82
2021/05/05 03:49:08;;;;;;;8.15;2.47;;;;;;;7.46;71.83;98037.44;5036013;28;20045;-83
2021/05/05 03:51:35;;;;;;;8.10;2.38;;;;;;;7.46;71.98;98043.53;5034286;28;20541;-82
2021/05/05 03:54:01;;;;;;;12.02;2.50;;;;;;;7.46;72.25;98045.31;5034180;28;20082;-82
2021/05/05 03:56:27;;;;;;;11.48;2.30;;;;;;;7.47;72.44;98032.09;5035409;28;20057;-82
2021/05/05 03:58:53;;;;;;;7.43;2.72;;;;;;;7.49;72.06;98038.09;5034899;28;20045;-82
2021/05/05 04:01:19;;;;;;;9.60;2.45;;;;;;;7.49;71.96;98042.47;5034887;28;20056;-82
2021/05/05 04:03:46;;;;;;;12.32;2.70;;;;;;;7.49;72.12;98039.84;5035465;28;20082;-82
2021/05/05 04:06:12;;;;;;;13.20;2.40;;;;;;;7.51;72.11;98045.84;5035286;28;20053;-82
2021/05/05 04:08:38;;;;;;;6.38;2.40;;;;;;;7.52;71.75;98037.03;5033958;28;20060;-82
2021/05/05 04:11:06;;;;;;;10.63;2.85;;;;;;;7.53;71.78;98042.16;5035444;28;20053;-82
2021/05/05 04:13:32;;;;;;;8.98;2.35;;;;;;;7.54;72.07;98033.34;5035014;28;20055;-82
2021/05/05 04:16:17;;;;;;;12.40;2.20;;;;;;;7.59;71.95;98048.69;5035068;28;20135;-82
2021/05/05 04:19:02;;;;;;;7.43;1.77;;;;;;;7.60;71.77;98042.53;5033755;28;20044;-82
2021/05/05 04:21:46;;;;;;;8.35;2.25;;;;;;;7.63;71.92;98054.56;5034878;28;20044;-82
2021/05/05 04:24:30;;;;;;;12.38;2.78;;;;;;;7.64;71.70;98051.00;5035231;28;20052;-82
2021/05/05 04:26:56;;;;;;;7.93;2.40;;;;;;;7.65;71.75;98044.81;5035526;28;20160;-83
2021/05/05 04:29:22;;;;;;;7.82;2.08;;;;;;;7.65;71.53;98050.91;5036034;28;20052;-82
2021/05/05 04:31:51;;;;;;;10.57;2.50;;;;;;;7.68;71.88;98044.59;5036266;28;20399;-84
2021/05/05 04:34:19;;;;;;;8.75;2.20;;;;;;;7.69;71.73;98051.50;5035867;28;20084;-83
2021/05/05 04:36:45;;;;;;;11.70;2.53;;;;;;;7.72;71.49;98058.28;5034824;28;20049;-83
2021/05/05 04:39:12;;;;;;;11.93;2.90;;;;;;;7.72;70.99;98045.19;5035677;28;20056;-83
2021/05/05 04:41:38;;;;;;;13.77;3.05;;;;;;;7.72;71.35;98051.28;5035820;28;20049;-83
2021/05/05 04:44:04;;;;;;;7.97;2.60;;;;;;;7.73;71.08;98060.00;5032986;28;20053;-84
2021/05/05 04:46:31;;;;;;;14.95;2.80;;;;;;;7.74;70.89;98061.66;5025915;28;20132;-83
2021/05/05 04:48:57;;;;;;;11.32;2.85;;;;;;;7.74;71.25;98065.09;5015088;28;20050;-83
2021/05/05 04:51:23;;;;;;;10.20;2.67;;;;;;;7.73;70.65;98073.91;5015663;28;20061;-84
2021/05/05 04:53:49;;;;;;;12.70;2.95;;;;;;;7.74;70.85;98074.75;5015631;28;20185;-84
2021/05/05 04:56:15;;;;;;;12.95;2.58;;;;;;;7.77;71.05;98079.75;5015380;28;20502;-83
2021/05/05 04:58:41;;;;;;;11.50;2.00;;;;;;;7.78;70.87;98081.44;5014161;28;20046;-84
2021/05/05 05:01:07;;;;;;;11.52;2.65;;;;;;;7.79;71.19;98089.19;5014823;28;20053;-84
2021/05/05 05:03:33;;;;;;;12.38;2.40;;;;;;;7.81;71.15;98083.81;5014148;28;20057;-86
2021/05/05 05:05:59;;;;;;;11.32;2.72;;;;;;;7.82;70.93;98090.75;5015160;28;20054;-83
2021/05/05 05:08:26;;;;;;;13.05;3.08;;;;;;;7.84;71.20;98103.75;5026371;28;20057;-83
2021/05/05 05:10:52;;;;;;;14.02;2.67;;;;;;;7.84;70.99;98088.03;5018434;28;20053;-83
2021/05/05 05:13:19;;;;;;;9.57;2.40;;;;;;;7.85;70.37;98095.75;5014273;28;20088;-83
2021/05/05 05:15:45;;;;;;;16.42;2.95;;;;;;;7.86;70.55;98089.59;5015736;28;20061;-84
2021/05/05 05:18:11;;;;;;;20.35;3.13;;;;;;;7.87;70.62;98095.63;5014690;28;20054;-83
2021/05/05 05:20:37;;;;;;;16.90;3.30;;;;;;;7.89;70.42;98096.38;5014563;28;20103;-83
2021/05/05 05:23:03;;;;;;;11.93;2.53;;;;;;;7.91;70.95;98100.56;5014249;28;20050;-84
2021/05/05 05:25:29;;;;;;;13.27;2.83;;;;;;;7.92;71.10;98086.50;5031743;28;20057;-83
2021/05/05 05:27:55;;;;;;;14.18;3.10;;;;;;;7.94;70.54;98094.25;5032548;28;20053;-83
2021/05/05 05:30:23;;;;;;;15.32;2.75;;;;;;;7.95;70.11;98103.78;5023835;28;20074;-83
2021/05/05 05:32:49;;;;;;;15.98;3.30;;;;;;;7.98;70.97;98102.72;5013129;28;20073;-83
2021/05/05 05:35:16;;;;;;;11.80;2.88;;;;;;;7.98;70.03;98103.56;5015345;28;20136;-84
2021/05/05 05:37:42;;;;;;;11.05;2.42;;;;;;;8.01;70.05;98112.97;5034438;28;20053;-84
2021/05/05 05:40:08;;;;;;;13.48;2.42;;;;;;;8.02;70.48;98107.63;5032295;28;20368;-83
2021/05/05 05:42:35;;;;;;;11.82;3.38;;;;;;;8.04;70.10;98097.03;5033497;28;20045;-84
2021/05/05 05:45:01;;;;;;;30.35;3.05;;;;;;;8.04;70.24;98102.28;5033091;28;20053;-83
2021/05/05 05:47:27;;;;;;;10.80;2.53;;;;;;;8.06;70.48;98108.22;5033186;28;20080;-83
2021/05/05 05:49:54;;;;;;;16.15;3.17;;;;;;;8.05;69.80;98107.41;5034734;28;20112;-83
2021/05/05 05:52:21;;;;;;;16.98;2.60;;;;;;;8.10;70.62;98116.72;5032471;28;20094;-83
2021/05/05 05:54:47;;;;;;;12.48;2.47;;;;;;;8.11;70.71;98113.97;5032530;28;20064;-83
2021/05/05 05:57:13;;;;;;;11.68;2.47;;;;;;;8.14;70.28;98119.00;5033327;28;20045;-83
2021/05/05 05:59:40;;;;;;;18.58;3.40;;;;;;;8.17;69.89;98124.00;5032336;28;20380;-83
2021/05/05 06:02:06;;;;;;;17.75;2.75;;;;;;;8.19;69.90;98127.34;5032497;28;20045;-83
2021/05/05 06:04:32;;;;;;;15.68;3.35;;;;;;;8.25;70.12;98130.47;5033259;28;20103;-83
2021/05/05 06:06:58;;;;;;;19.83;2.65;;;;;;;8.29;70.03;98121.41;5033295;28;20062;-84
2021/05/05 06:09:24;;;;;;;17.98;2.97;;;;;;;8.32;69.64;98131.69;5033423;28;20056;-83
2021/05/05 06:11:50;;;;;;;15.73;2.47;;;;;;;8.34;69.74;98130.63;5033418;28;20049;-83
2021/05/05 06:14:17;;;;;;;10.85;2.58;;;;;;;8.40;69.89;98139.81;5033549;28;20061;-83
2021/05/05 06:16:44;;;;;;;11.18;2.55;;;;;;;8.43;69.59;98129.13;5033602;28;20057;-83
2021/05/05 06:19:10;;;;;;;18.55;3.13;;;;;;;8.49;69.48;98140.94;5033166;28;20045;-83
2021/05/05 06:21:36;;;;;;;11.95;2.70;;;;;;;8.52;69.64;98148.56;5032220;28;20045;-83
2021/05/05 06:24:04;;;;;;;18.05;2.58;;;;;;;8.56;70.09;98121.19;5034636;28;20107;-83
2021/05/05 06:26:30;;;;;;;19.25;3.30;;;;;;;8.59;69.22;98152.44;5032863;28;20052;-83
2021/05/05 06:28:58;;;;;;;12.32;2.35;;;;;;;8.64;69.29;98148.63;5032768;28;20045;-83
2021/05/05 06:31:24;;;;;;;10.60;2.55;;;;;;;8.68;69.58;98157.94;5033433;28;20811;-83
2021/05/05 06:33:50;;;;;;;10.80;2.85;;;;;;;8.73;69.65;98142.69;5033385;28;20060;-83
2021/05/05 06:36:16;;;;;;;12.48;2.83;;;;;;;8.80;69.98;98137.81;5033672;28;20391;-84
2021/05/05 06:38:42;;;;;;;16.20;2.72;;;;;;;8.85;68.99;98157.50;5033927;28;20049;-84
2021/05/05 06:41:09;;;;;;;16.92;2.90;;;;;;;8.92;69.46;98150.00;5035800;28;20069;-83
2021/05/05 06:43:36;;;;;;;9.65;2.70;;;;;;;8.98;69.40;98136.41;5032299;28;20060;-84
2021/05/05 06:46:02;;;;;;;9.80;2.50;;;;;;;9.03;68.62;98157.06;5033335;28;20391;-83
2021/05/05 06:48:29;;;;;;;11.45;2.70;;;;;;;9.08;68.83;98160.16;5032284;28;20053;-83
2021/05/05 06:50:55;;;;;;;11.55;2.38;;;;;;;9.11;68.72;98164.34;5032715;28;20490;-83
2021/05/05 06:53:21;;;;;;;15.55;3.15;;;;;;;9.13;67.83;98165.06;5033050;28;20081;-83
2021/05/05 06:55:47;;;;;;;8.30;2.90;;;;;;;9.18;68.28;98159.44;5033162;28;20053;-84
2021/05/05 06:58:14;;;;;;;10.80;2.92;;;;;;;9.21;68.18;98151.34;5034210;28;20462;-84
2021/05/05 07:00:40;;;;;;;10.90;2.45;;;;;;;9.23;67.46;98162.53;5033832;28;20041;-83
2021/05/05 07:03:07;;;;;;;14.75;2.35;;;;;;;9.24;67.28;98159.81;5033015;28;20129;-84
2021/05/05 07:05:33;;;;;;;11.15;2.42;;;;;;;9.24;66.50;98167.69;5022360;28;20050;-84
2021/05/05 07:07:59;;;;;;;12.68;2.92;;;;;;;9.25;66.63;98165.91;5028034;28;20045;-84
2021/05/05 07:10:26;;;;;;;11.68;2.45;;;;;;;9.24;66.43;98159.81;5036922;28;20069;-83
2021/05/05 07:12:52;;;;;;;19.17;2.80;;;;;;;9.29;67.83;98161.25;5036765;28;20056;-84
2021/05/05 07:15:18;;;;;;;11.90;2.30;;;;;;;9.29;66.85;98177.84;5036287;28;20057;-84
2021/05/05 07:17:44;;;;;;;17.23;2.72;;;;;;;9.34;67.61;98170.44;5036692;28;20414;-83
2021/05/05 07:20:11;;;;;;;12.68;2.55;;;;;;;9.38;67.39;98177.13;5036307;28;20088;-83
2021/05/05 07:22:41;;;;;;;14.93;2.53;;;;;;;9.41;66.74;98167.34;5036415;28;20465;-84
2021/05/05 07:25:07;;;;;;;15.90;2.60;;;;;;;9.46;67.09;98173.88;5035185;28;20053;-84
2021/05/05 07:27:34;;;;;;;11.60;2.20;;;;;;;9.49;66.39;98173.66;5043383;28;20056;-84
2021/05/05 07:30:01;;;;;;;11.57;2.38;;;;;;;9.54;66.72;98164.59;5046842;28;20513;-84
2021/05/05 07:32:27;;;;;;;11.05;2.95;;;;;;;9.57;65.62;98173.06;5027013;28;20061;-83
2021/05/05 07:34:54;;;;;;;10.90;2.30;;;;;;;9.65;67.44;98160.16;5019747;28;20534;-84
2021/05/05 07:43:26;;;;;;;16.08;2.47;;;;;;;9.85;66.16;98170.88;5016791;28;20384;-83
2021/05/05 07:48:24;;;;;;;12.90;2.50;;;;;;;9.96;65.55;98191.06;5015311;28;20451;-84
2021/05/05 07:50:47;;;;;;;16.15;2.42;;;;;;;10.00;65.42;98176.72;5014279;28;20054;-83
2021/05/05 07:53:12;;;;;;;9.68;1.80;;;;;;;10.07;66.29;98173.56;5015998;28;20056;-83
2021/05/05 07:55:38;;;;;;;11.27;2.45;;;;;;;10.07;64.04;98176.19;5016137;28;20050;-83
2021/05/05 07:58:03;;;;;;;11.02;2.30;;;;;;;10.10;64.77;98170.72;5016709;28;20037;-84
2021/05/05 08:00:30;;;;;;;12.13;2.88;;;;;;;10.11;64.51;98196.03;5015349;28;20503;-83
2021/05/05 08:02:56;;;;;;;12.65;2.03;;;;;;;10.11;64.97;98212.66;5016330;28;20050;-83
2021/05/05 08:05:22;;;;;;;13.48;2.47;;;;;;;10.10;63.36;98197.00;5014986;28;20071;-83
2021/05/05 08:07:53;;;;;;;13.57;2.20;;;;;;;10.10;63.87;98184.66;5015998;28;20196;-84
2021/05/05 08:10:20;;;;;;;13.73;2.78;;;;;;;10.13;64.15;98180.97;5025727;28;20065;-83
2021/05/05 08:12:47;;;;;;;8.38;2.15;;;;;;;10.17;64.46;98192.91;5035765;28;20053;-84
2021/05/05 08:15:14;;;;;;;13.07;2.67;;;;;;;10.21;64.60;98209.28;5034473;28;20060;-84
2021/05/05 08:17:40;;;;;;;10.55;2.50;;;;;;;10.20;62.97;98197.91;5048889;28;20057;-83
2021/05/05 08:20:07;;;;;;;12.38;2.53;;;;;;;10.24;64.35;98204.59;5053725;28;20513;-83
2021/05/05 08:22:34;;;;;;;9.60;1.80;;;;;;;10.26;63.63;98192.16;5054975;28;20056;-84
2021/05/05 08:25:00;;;;;;;9.10;2.20;;;;;;;10.34;64.52;98198.59;5045379;28;20517;-83
2021/05/05 08:27:26;;;;;;;9.02;2.10;;;;;;;10.40;64.53;98204.19;5036061;28;20054;-84
2021/05/05 08:29:53;;;;;;;11.60;2.20;;;;;;;10.48;64.77;98203.59;5036383;28;20049;-84
2021/05/05 08:32:20;;;;;;;8.07;2.20;;;;;;;10.53;64.16;98204.06;5036229;28;20049;-84
2021/05/05 08:34:48;;;;;;;11.60;2.28;;;;;;;10.54;62.76;98212.78;5035715;28;20060;-84
2021/05/05 08:37:17;;;;;;;7.20;1.65;;;;;;;10.53;62.74;98204.06;5036377;28;20080;-84
2021/05/05 08:39:43;;;;;;;8.50;2.00;;;;;;;10.53;63.73;98205.84;5033809;28;20088;-83
2021/05/05 08:42:10;;;;;;;11.93;2.47;;;;;;;10.54;63.60;98200.47;5034660;28;20060;-84
2021/05/05 08:44:36;;;;;;;6.85;2.45;;;;;;;10.55;63.88;98201.31;5035261;28;20107;-84
2021/05/05 08:47:03;;;;;;;10.32;2.33;;;;;;;10.55;63.29;98207.38;5034814;28;20053;-84
2021/05/05 08:49:32;;;;;;;10.25;2.00;;;;;;;10.60;64.38;98203.53;5035687;28;20045;-84
2021/05/05 08:52:00;;;;;;;7.55;2.33;;;;;;;10.67;64.99;98213.47;5035521;28;20056;-84
2021/05/05 08:54:26;;;;;;;9.00;2.10;;;;;;;10.76;65.21;98222.38;5034790;28;20056;-83
2021/05/05 08:56:52;;;;;;;9.75;2.08;;;;;;;10.84;63.65;98228.81;5031820;28;20053;-84
2021/05/05 08:59:18;;;;;;;11.05;1.90;;;;;;;10.90;62.94;98215.97;5033360;28;20068;-84
2021/05/05 09:01:45;;;;;;;6.20;1.65;;;;;;;10.95;63.39;98213.78;5032477;28;20054;-83
2021/05/05 09:04:14;;;;;;;7.40;1.88;;;;;;;10.99;63.72;98227.50;5015851;28;20053;-84
2021/05/05 09:06:44;;;;;;;9.63;2.28;;;;;;;10.98;61.99;98239.03;5015924;28;20050;-84
2021/05/05 09:09:12;;;;;;;6.70;1.73;;;;;;;11.03;63.18;98241.28;5014512;28;20053;-84
2021/05/05 09:11:46;;;;;;;5.40;1.45;;;;;;;11.05;60.20;98237.56;5019505;28;20046;-84
2021/05/05 09:14:12;;;;;;;5.32;1.30;;;;;;;11.14;64.34;98248.28;5030809;28;20053;-84
2021/05/05 09:16:39;;;;;;;6.57;1.50;;;;;;;11.23;64.62;98242.25;5031430;28;20058;-84
2021/05/05 09:19:12;;;;;;;6.70;1.80;;;;;;;11.28;62.73;98242.69;5036333;28;20060;-84
2021/05/05 09:21:41;;;;;;;8.55;1.95;;;;;;;11.38;62.49;98236.63;5035872;28;20562;-84
2021/05/05 09:24:28;;;;;;;6.55;1.75;;;;;;;11.44;58.57;98247.47;5027228;28;20060;-84
2021/05/05 09:26:59;;;;;;;5.07;1.67;;;;;;;11.52;57.65;98262.66;5033151;28;20057;-84
2021/05/05 09:29:45;;;;;;;6.97;1.92;;;;;;;11.54;56.26;98249.31;5023414;28;20065;-83
2021/05/05 09:32:16;;;;;;;6.90;1.77;;;;;;;11.62;61.02;98241.59;5014120;28;20459;-83
2021/05/05 09:34:55;;;;;;;6.57;1.95;;;;;;;11.57;56.19;98254.34;5014831;28;20049;-84
2021/05/05 09:37:24;;;;;;;5.93;1.75;;;;;;;11.56;58.67;98281.66;5042196;28;20046;-84
2021/05/05 09:40:08;;;;;;;5.82;1.80;;;;;;;11.42;59.02;98261.75;5025065;28;20100;-83
2021/05/05 09:42:35;;;;;;;3.08;1.23;;;;;;;11.38;61.08;98286.69;5014795;28;20069;-83
2021/05/05 09:45:09;;;;;;;5.97;1.30;;;;;;;11.26;60.60;98288.56;5019742;28;20486;-84
2021/05/05 09:47:48;;;;;;;3.38;1.05;;;;;;;11.08;60.68;98283.84;5033343;28;20060;-83
2021/05/05 09:50:44;;;;;;;5.97;1.13;;;;;;;10.90;60.82;98300.22;5027470;28;20044;-83
2021/05/05 09:53:19;;;;;;;5.25;0.95;;;;;;;10.76;60.92;98303.97;5026575;28;20053;-83
2021/05/05 09:55:52;;;;;;;1.45;0.73;;;;;;;10.63;62.15;98292.75;5021835;28;20060;-84
2021/05/05 09:58:31;;;;;;;2.47;0.80;;;;;;;10.54;63.69;98303.06;5027104;28;20056;-85
2021/05/05 10:01:03;;;;;;;2.45;0.80;;;;;;;10.50;64.09;98309.53;5031029;28;20041;-86
2021/05/05 10:03:41;;;;;;;2.53;0.77;;;;;;;10.52;63.82;98312.91;5033823;28;20053;-85
2021/05/05 10:06:39;;;;;;;2.78;0.77;;;;;;;10.59;64.72;98313.25;5014724;28;20141;-83
2021/05/05 10:09:12;;;;;;;2.35;1.13;;;;;;;10.71;65.17;98305.28;5023986;28;20056;-83
2021/05/05 10:11:41;;;;;;;3.30;1.10;;;;;;;10.83;66.52;98291.13;5027602;28;20060;-84
2021/05/05 10:14:12;;;;;;;4.43;1.23;;;;;;;10.97;66.79;98297.06;5022148;28;20411;-84
2021/05/05 10:16:41;;;;;;;4.65;1.20;;;;;;;11.11;66.85;98294.16;5016286;28;20060;-84
2021/05/05 10:19:20;;;;;;;4.03;1.27;;;;;;;11.25;66.19;98298.25;5012469;28;20132;-83
2021/05/05 10:21:54;;;;;;;3.58;1.25;;;;;;;11.43;65.47;98316.09;5012185;28;20049;-83
2021/05/05 10:24:25;;;;;;;5.32;1.50;;;;;;;11.54;63.90;98318.69;5016201;28;20061;-84
2021/05/05 10:26:52;;;;;;;4.80;1.15;;;;;;;11.63;65.42;98327.63;5018434;28;20050;-83
2021/05/05 10:29:19;;;;;;;5.03;1.30;;;;;;;11.69;64.26;98339.44;5013483;28;20057;-84
2021/05/05 10:31:51;;;;;;;3.25;0.93;;;;;;;11.68;62.27;98353.56;5013260;28;20541;-84
2021/05/05 10:34:22;;;;;;;2.70;0.95;;;;;;;11.70;63.93;98349.03;5012919;28;20141;-84
2021/05/05 10:36:56;;;;;;;3.30;1.20;;;;;;;11.66;62.39;98363.44;5013434;28;20058;-84
2021/05/05 10:39:24;;;;;;;2.92;1.08;;;;;;;11.66;62.90;98358.16;5013457;28;20069;-84
2021/05/05 10:42:00;;;;;;;3.05;1.48;;;;;;;11.59;60.70;98358.66;5013882;28;20419;-84
2021/05/05 10:44:48;;;;;;;6.57;1.30;;;;;;;11.57;61.37;98354.47;5018571;28;20046;-83
2021/05/05 10:47:24;;;;;;;7.03;1.75;;;;;;;11.72;65.49;98370.81;5018761;28;20056;-84
2021/05/05 10:50:02;;;;;;;9.20;1.80;;;;;;;11.91;63.92;98367.44;5016887;28;20578;-84
2021/05/05 10:52:34;;;;;;;5.63;1.40;;;;;;;12.18;65.32;98357.34;5017215;28;20061;-84
2021/05/05 10:55:03;;;;;;;5.17;1.70;;;;;;;12.39;63.48;98370.47;5017098;28;20132;-84
2021/05/05 10:57:29;;;;;;;5.55;1.13;;;;;;;12.47;61.04;98368.00;5017050;28;20062;-84
2021/05/05 11:00:11;;;;;;;4.72;1.17;;;;;;;12.44;58.71;98380.59;5017875;28;20415;-84
2021/05/05 11:02:40;;;;;;;4.45;1.30;;;;;;;12.37;60.47;98389.06;5018553;28;20053;-84
2021/05/05 11:05:15;;;;;;;5.78;1.30;;;;;;;12.20;59.62;98400.25;5018453;28;20080;-84
2021/05/05 11:07:50;;;;;;;6.28;1.30;;;;;;;12.01;59.11;98424.69;5018036;28;20050;-84
2021/05/05 11:13:00;;;;;;;3.45;0.70;;;;;;;11.45;58.34;98419.59;5017739;28;20060;-84
2021/05/05 11:15:42;;;;;;;3.90;0.60;;;;;;;11.00;57.41;98403.00;5029793;28;20541;-84
2021/05/05 11:21:05;;;;;;;3.10;0.85;;;;;;;10.38;61.35;98428.84;5036218;28;20486;-83
2021/05/05 11:23:38;;;;;;;6.55;1.42;;;;;;;10.14;62.44;98424.53;5036269;28;20053;-83
2021/05/05 11:26:21;;;;;;;5.82;1.60;;;;;;;9.96;63.60;98429.41;5035991;28;20058;-83
2021/05/05 11:28:58;;;;;;;3.97;1.50;;;;;;;9.88;64.43;98435.25;5036915;28;20053;-84
2021/05/05 11:31:49;;;;;;;9.77;1.63;;;;;;;9.80;64.71;98433.22;5038386;28;20502;-84
2021/05/05 11:34:25;;;;;;;2.85;1.40;;;;;;;9.80;65.90;98417.44;5038381;28;20053;-84
2021/05/05 11:37:27;;;;;;;3.38;1.17;;;;;;;9.95;69.24;98423.34;5037617;28;20049;-84
2021/05/05 11:39:59;;;;;;;5.88;1.40;;;;;;;10.31;71.80;98439.00;5037736;28;20045;-84
2021/05/05 11:42:33;;;;;;;8.60;1.88;;;;;;;10.71;70.59;98460.56;5037429;28;20050;-84
2021/05/05 11:45:10;;;;;;;5.00;1.30;;;;;;;11.02;68.04;98472.16;5036581;28;20076;-84
2021/05/05 11:47:43;;;;;;;5.93;1.15;;;;;;;11.18;65.66;98470.94;5036961;28;20080;-84
2021/05/05 11:50:12;;;;;;;4.07;1.10;;;;;;;11.23;65.30;98450.31;5037846;28;20080;-83
2021/05/05 11:52:50;;;;;;;5.72;1.20;;;;;;;11.17;64.44;98458.69;5036597;28;20053;-84
2021/05/05 11:55:26;;;;;;;1.90;0.90;;;;;;;11.21;67.14;98460.13;5035587;28;20049;-84
2021/05/05 11:57:54;;;;;;;6.80;1.50;;;;;;;11.40;68.80;98456.03;5036399;28;20049;-84